Hauptseite
METAR-TAF:

METAR-TAF

Flughäfen :

Flughafen Hamburg

Hamburg, Deutschland

Breite: 53-38N, Länge: 010-00E, Höhe: 16 m

Beobachtung

Neuester Wetterbericht von vor 12 Minuten, um 08:20 UTC
Wind 8 kt aus Süd/Südost
Temperatur 11°C
Luftfeuchtigkeit 87%
Luftdruck 1019 hPa
Sichtweite 10 km oder mehr
keine Wolken unter 1500 m und keine Kumulonimbus oder Gewitterwolken

METAR: EDDH 280820Z 15008KT CAVOK 11/09 Q1019 NOSIG

Zeit: 10:32 (08:32 UTC)

Prognose

Neuester Wetterbericht von vor 3 Stunden und 32 Minuten, um 05:00 UTC
Gültige Prognose vom 28 um 06 UTC bis 29 um 12 UTC
Wind 7 kt aus Süd/Südwest
Sichtweite 10 km oder mehr
keine Wolken unter 1500 m und keine Kumulonimbus oder Gewitterwolken

TAF: EDDH 280500Z 2806/2912 20007KT CAVOK

Wetterbeobachtungen und Prognosen von mehr als 4000 Flughäfen (METAR und TAF Bericht).

Die verfügbaren Stationen werden durch gelbe und rote Markierungen auf der Karte dargestellt.

Führen Sie die Maus auf sie, um den Namen der Station zu sehen.

Darauf klicken, um die Beobachtung von Wetterbeobachtungen und Prognosen zu sehen.

Um die Karte zu ändern : klicken Sie auf den grünen Tasten mit einem schwarzen Kreuz Zum Vergrößern, auf den grünen Button mit einem Gedankenstrich zu verkleinern, oder auf die grünen Pfeile für benachbarte Karten.


METAR-TAF: